Time;durP1;ratioP1;P1;durP2;ratioP2;P2;SDS_P1;SDS_P2;PMS_P1;PMS_P2;Temp;Humidity;BMP_temperature;BMP_pressure;BME280_temperature;BME280_humidity;BME280_pressure;Samples;Min_cycle;Max_cycle;Signal;HPM_P1;HPM_P2
2022/02/08 00:01:37;;;;;;;32.20;8.33;;;;;;;1.60;78.19;98891.85;2291031;77;21023;-85
2022/02/08 00:04:36;;;;;;;35.97;8.23;;;;;;;1.63;78.53;98891.12;2291823;77;21039;-84
2022/02/08 00:07:37;;;;;;;37.03;8.63;;;;;;;1.65;78.56;98894.23;2292776;78;21277;-83
2022/02/08 00:10:39;;;;;;;40.13;8.70;;;;;;;1.67;78.21;98898.17;2292949;78;20967;-85
2022/02/08 00:13:40;;;;;;;31.63;7.50;;;;;;;1.68;78.24;98907.66;2269938;78;20943;-85
2022/02/08 00:16:41;;;;;;;38.87;7.50;;;;;;;1.66;77.82;98910.16;2292882;78;21339;-84
2022/02/08 00:19:42;;;;;;;24.10;7.20;;;;;;;1.66;78.36;98899.86;2293106;78;20917;-84
2022/02/08 00:22:42;;;;;;;29.53;7.23;;;;;;;1.66;78.46;98915.30;2293266;78;20967;-84
2022/02/08 00:25:43;;;;;;;31.93;7.70;;;;;;;1.67;78.43;98914.49;2292750;78;21323;-85
2022/02/08 00:28:44;;;;;;;29.33;6.93;;;;;;;1.66;78.33;98921.73;2293009;78;21043;-85
2022/02/08 00:31:45;;;;;;;30.97;6.90;;;;;;;1.66;78.18;98925.59;2292685;78;21322;-83
2022/02/08 00:34:45;;;;;;;35.90;7.20;;;;;;;1.65;78.47;98926.41;2292803;78;20900;-84
2022/02/08 00:37:45;;;;;;;28.90;7.30;;;;;;;1.67;78.45;98929.05;2292573;78;20908;-85
2022/02/08 00:40:48;;;;;;;31.67;7.00;;;;;;;1.68;78.69;98932.10;2292206;78;20909;-84
2022/02/08 00:44:06;;;;;;;33.47;7.00;;;;;;;1.68;78.59;98943.28;2292740;78;20980;-85
2022/02/08 00:50:07;;;;;;;26.97;6.07;;;;;;;1.65;79.37;98941.84;2270163;78;21411;-84
2022/02/08 00:53:07;;;;;;;27.30;5.90;;;;;;;1.63;79.55;98946.03;2292597;78;21028;-84
2022/02/08 00:56:07;;;;;;;27.17;6.30;;;;;;;1.63;79.72;98946.44;2292809;78;20893;-84
2022/02/08 00:59:08;;;;;;;24.73;6.00;;;;;;;1.60;80.14;98959.63;2292448;78;21339;-84
2022/02/08 01:02:09;;;;;;;26.10;5.73;;;;;;;1.56;80.54;98951.69;2292221;78;21003;-83
2022/02/08 01:05:12;;;;;;;25.47;7.50;;;;;;;1.55;80.51;98959.81;2292295;78;20979;-84
2022/02/08 01:08:11;;;;;;;28.30;6.33;;;;;;;1.56;80.67;98964.55;2291014;77;21391;-83
2022/02/08 01:11:12;;;;;;;25.77;7.17;;;;;;;1.54;80.96;98966.17;2292081;78;20936;-84
2022/02/08 01:14:14;;;;;;;28.30;6.27;;;;;;;1.54;81.26;98975.17;2292402;78;20924;-83
2022/02/08 01:17:15;;;;;;;25.90;5.60;;;;;;;1.49;81.57;98971.09;2291888;78;20996;-84
2022/02/08 01:20:20;;;;;;;31.70;6.47;;;;;;;1.46;81.62;98972.22;2292015;78;20924;-83
2022/02/08 01:23:18;;;;;;;26.77;5.80;;;;;;;1.44;82.01;98976.81;2291479;77;20989;-84
2022/02/08 01:26:19;;;;;;;25.83;5.13;;;;;;;1.44;82.04;98980.67;2291536;78;21374;-83
2022/02/08 01:29:35;;;;;;;25.60;6.30;;;;;;;1.44;82.18;98977.70;2291339;78;20979;-84
2022/02/08 01:38:53;;;;;;;22.87;5.90;;;;;;;1.44;82.45;98989.67;2268067;78;21024;-84
2022/02/08 01:45:23;;;;;;;24.97;6.57;;;;;;;1.44;82.56;98994.82;2265480;78;21011;-83
2022/02/08 01:48:15;;;;;;;34.80;7.03;;;;;;;1.45;82.48;98994.02;2278846;78;20986;-83
2022/02/08 01:51:14;;;;;;;25.50;6.10;;;;;;;1.46;82.46;98994.09;2281232;78;20965;-83
2022/02/08 01:54:14;;;;;;;36.43;6.90;;;;;;;1.48;82.50;99003.17;2282258;77;20941;-84
2022/02/08 01:57:14;;;;;;;29.47;6.40;;;;;;;1.48;82.43;99014.34;2282308;77;21005;-83
2022/02/08 02:00:15;;;;;;;26.50;6.43;;;;;;;1.50;82.26;99023.02;2282098;77;20895;-85
2022/02/08 02:03:15;;;;;;;34.33;6.13;;;;;;;1.52;82.29;99030.41;2282074;77;20915;-84
2022/02/08 02:06:16;;;;;;;27.90;7.03;;;;;;;1.52;82.64;99023.98;2281938;77;21369;-84
2022/02/08 02:09:16;;;;;;;22.70;5.70;;;;;;;1.48;82.74;99036.20;2282630;77;20903;-84
2022/02/08 02:12:17;;;;;;;29.67;5.97;;;;;;;1.46;82.69;99031.39;2282358;77;20953;-85
2022/02/08 02:15:18;;;;;;;30.90;5.57;;;;;;;1.46;82.79;99036.94;2282052;77;20977;-84
2022/02/08 02:18:18;;;;;;;23.90;6.47;;;;;;;1.48;82.52;99036.61;2282880;77;20958;-84
2022/02/08 02:21:22;;;;;;;34.73;7.17;;;;;;;1.50;82.59;99040.14;2282516;77;21058;-84
2022/02/08 02:24:22;;;;;;;23.67;4.93;;;;;;;1.52;82.55;99040.70;2282169;77;20899;-84
2022/02/08 02:27:23;;;;;;;29.57;6.23;;;;;;;1.52;82.46;99051.39;2282427;77;21028;-84
2022/02/08 02:30:23;;;;;;;29.00;6.13;;;;;;;1.51;82.59;99049.63;2280899;77;20985;-83
2022/02/08 02:33:24;;;;;;;31.40;6.50;;;;;;;1.51;82.51;99062.49;2282781;77;20997;-84
2022/02/08 02:36:24;;;;;;;26.97;5.97;;;;;;;1.52;82.47;99063.85;2282441;77;20902;-84
2022/02/08 02:39:25;;;;;;;28.10;7.33;;;;;;;1.54;82.31;99059.67;2282429;77;20910;-83
2022/02/08 02:42:27;;;;;;;23.57;6.20;;;;;;;1.56;82.28;99069.63;2282072;77;20905;-84
2022/02/08 02:45:28;;;;;;;28.60;6.33;;;;;;;1.60;82.16;99075.82;2282349;78;20975;-84
2022/02/08 02:48:28;;;;;;;26.00;6.30;;;;;;;1.62;82.03;99079.35;2282678;77;20954;-83
2022/02/08 02:51:29;;;;;;;20.97;5.90;;;;;;;1.63;82.03;99081.52;2282418;78;20961;-82
2022/02/08 02:54:30;;;;;;;28.40;6.10;;;;;;;1.62;81.79;99081.92;2281445;77;21328;-84
2022/02/08 02:57:30;;;;;;;23.10;6.37;;;;;;;1.64;81.81;99092.30;2281289;77;20973;-83
2022/02/08 03:00:38;;;;;;;33.93;6.93;;;;;;;1.64;81.69;99096.16;2282255;77;20977;-83
2022/02/08 03:20:02;;;;;;;26.67;6.50;;;;;;;1.72;80.32;99116.33;2281694;77;21385;-83
2022/02/08 03:23:02;;;;;;;30.00;6.80;;;;;;;1.73;80.33;99125.81;2281144;77;20906;-82
2022/02/08 03:26:03;;;;;;;23.43;5.97;;;;;;;1.74;80.29;99130.19;2280865;78;20953;-82
2022/02/08 03:29:03;;;;;;;25.77;5.10;;;;;;;1.76;80.00;99135.01;2281830;77;21384;-83
2022/02/08 03:32:04;;;;;;;31.57;6.87;;;;;;;1.76;79.71;99142.73;2281987;77;21337;-83
2022/02/08 03:35:05;;;;;;;26.00;5.70;;;;;;;1.78;79.51;99137.26;2282111;78;20935;-83
2022/02/08 03:38:08;;;;;;;25.77;6.90;;;;;;;1.80;79.16;99135.64;2281867;77;21349;-84
2022/02/08 03:41:10;;;;;;;30.70;6.50;;;;;;;1.80;79.14;99142.48;2281734;78;20974;-82
2022/02/08 03:44:16;;;;;;;19.60;6.13;;;;;;;1.80;78.70;99151.49;2281720;77;20950;-81
2022/02/08 03:47:13;;;;;;;40.00;6.93;;;;;;;1.78;79.29;99170.72;2280583;77;20982;-83
2022/02/08 03:50:13;;;;;;;20.70;5.53;;;;;;;1.80;78.97;99156.64;2281843;77;20949;-81
2022/02/08 03:53:14;;;;;;;27.93;7.00;;;;;;;1.80;78.89;99165.24;2281680;77;20918;-83
2022/02/08 03:56:15;;;;;;;26.83;5.80;;;;;;;1.82;78.69;99173.92;2281843;77;20930;-82
2022/02/08 03:59:17;;;;;;;27.03;6.20;;;;;;;1.83;78.00;99176.98;2281645;77;21057;-83
2022/02/08 04:02:39;;;;;;;31.33;6.30;;;;;;;1.83;78.14;99190.25;2281500;78;20950;-83
2022/02/08 04:05:43;;;;;;;27.50;6.53;;;;;;;1.81;78.17;99203.05;2279934;78;20985;-82
2022/02/08 04:08:37;;;;;;;28.77;6.37;;;;;;;1.83;78.50;99189.85;2281007;78;21076;-83
2022/02/08 04:11:51;;;;;;;37.00;7.20;;;;;;;1.81;78.31;99195.73;2281211;77;21017;-84
2022/02/08 04:14:48;;;;;;;27.57;6.67;;;;;;;1.79;78.27;99204.66;2278448;78;21076;-84
2022/02/08 04:40:52;;;;;;;24.93;5.60;;;;;;;1.73;78.49;99235.19;2260554;78;20985;-82
2022/02/08 04:43:57;;;;;;;25.23;6.10;;;;;;;1.74;78.61;99244.72;2279253;78;21256;-82
2022/02/08 04:49:56;;;;;;;27.67;4.83;;;;;;;1.76;78.52;99248.66;2267396;78;20995;-82
2022/02/08 04:53:04;;;;;;;27.97;5.20;;;;;;;1.76;78.25;99244.80;2290804;78;21207;-82
2022/02/08 04:56:14;;;;;;;27.33;5.57;;;;;;;1.76;78.43;99248.66;2289269;77;20996;-83
2022/02/08 04:59:19;;;;;;;23.40;4.80;;;;;;;1.73;78.13;99259.64;2287813;78;21067;-81
2022/02/08 05:35:39;;;;;;;30.13;6.73;;;;;;;1.60;78.90;99302.25;2289932;78;21034;-79
2022/02/08 05:44:43;;;;;;;25.43;6.77;;;;;;;1.67;78.85;99309.50;2266270;78;21016;-85
2022/02/08 05:47:43;;;;;;;34.80;7.97;;;;;;;1.70;78.88;99308.37;2279555;77;21069;-84
2022/02/08 05:50:56;;;;;;;37.23;9.03;;;;;;;1.68;78.83;99308.70;2278862;77;21016;-84
2022/02/08 05:53:46;;;;;;;34.87;8.60;;;;;;;1.67;78.86;99310.78;2276612;77;21683;-83
2022/02/08 05:56:51;;;;;;;26.67;8.10;;;;;;;1.69;79.04;99314.33;2277724;77;21008;-84
2022/02/08 05:59:51;;;;;;;40.97;9.10;;;;;;;1.69;78.91;99314.33;2277300;78;21454;-83
2022/02/08 06:02:51;;;;;;;33.07;7.40;;;;;;;1.68;78.93;99311.67;2277730;78;20993;-84
2022/02/08 06:05:52;;;;;;;27.30;8.03;;;;;;;1.68;79.00;99324.53;2277681;77;20969;-83
2022/02/08 06:08:53;;;;;;;26.57;7.50;;;;;;;1.68;79.03;99330.97;2278280;78;20957;-85
2022/02/08 06:11:54;;;;;;;29.77;7.47;;;;;;;1.67;78.99;99335.23;2278650;78;21100;-83
2022/02/08 06:15:00;;;;;;;36.40;11.20;;;;;;;1.69;78.95;99332.34;2279857;77;20945;-85
2022/02/08 06:18:02;;;;;;;24.20;7.67;;;;;;;1.71;78.99;99346.58;2278722;78;21004;-82
2022/02/08 06:21:02;;;;;;;29.07;7.80;;;;;;;1.72;78.63;99345.37;2279613;78;20978;-81
2022/02/08 06:24:03;;;;;;;43.93;14.17;;;;;;;1.73;78.79;99351.01;2279049;77;21333;-80
2022/02/08 06:27:03;;;;;;;34.40;9.40;;;;;;;1.96;78.44;99359.12;2278064;78;21332;-81
2022/02/08 06:30:04;;;;;;;43.57;14.73;;;;;;;1.90;78.46;99360.56;2277697;77;21523;-81
2022/02/08 06:33:05;;;;;;;38.70;9.67;;;;;;;1.87;78.57;99361.69;2278353;78;20941;-84
2022/02/08 06:36:06;;;;;;;44.87;9.40;;;;;;;1.86;78.35;99367.63;2278283;78;20957;-85
2022/02/08 06:39:06;;;;;;;24.23;7.03;;;;;;;1.86;78.21;99374.06;2278441;78;21367;-81
2022/02/08 06:42:11;;;;;;;38.70;10.23;;;;;;;1.88;78.04;99384.05;2279353;78;20953;-82
2022/02/08 06:45:09;;;;;;;35.43;9.20;;;;;;;1.91;78.17;99383.33;2279443;77;21460;-81
2022/02/08 06:48:11;;;;;;;28.60;9.30;;;;;;;1.92;78.03;99383.81;2289502;78;20960;-81
2022/02/08 06:51:11;;;;;;;37.60;8.47;;;;;;;1.94;77.68;99389.93;2289025;78;21082;-81
2022/02/08 06:54:12;;;;;;;24.63;7.07;;;;;;;1.96;77.97;99383.58;2289664;78;20999;-81
2022/02/08 06:57:12;;;;;;;34.87;7.80;;;;;;;2.01;77.58;99393.72;2289282;78;20939;-82
2022/02/08 07:00:17;;;;;;;31.67;7.07;;;;;;;2.03;77.65;99393.00;2288496;78;21073;-83
2022/02/08 07:03:15;;;;;;;27.60;9.07;;;;;;;2.09;77.59;99398.88;2287901;77;21730;-82
2022/02/08 07:06:16;;;;;;;28.70;7.77;;;;;;;2.12;77.52;99399.05;2288378;78;20964;-84
2022/02/08 07:09:17;;;;;;;23.30;7.33;;;;;;;2.18;77.52;99402.84;2287777;78;20991;-83
2022/02/08 07:12:17;;;;;;;28.80;7.37;;;;;;;2.31;77.17;99408.64;2287750;78;21011;-82
2022/02/08 07:15:19;;;;;;;24.57;7.47;;;;;;;2.40;76.59;99411.30;2287895;78;20986;-80
2022/02/08 07:18:19;;;;;;;26.43;7.00;;;;;;;2.47;76.45;99412.51;2288355;78;21371;-81
2022/02/08 07:21:20;;;;;;;28.10;6.90;;;;;;;2.53;76.34;99418.88;2288529;78;20975;-82
2022/02/08 07:24:20;;;;;;;29.77;8.67;;;;;;;2.49;76.41;99427.24;2288542;78;20975;-80
2022/02/08 07:27:21;;;;;;;22.60;7.20;;;;;;;2.41;76.51;99427.64;2289686;78;21349;-81
2022/02/08 07:30:21;;;;;;;28.57;8.70;;;;;;;2.38;76.64;99430.95;2288680;78;21011;-82
2022/02/08 07:33:22;;;;;;;35.10;8.37;;;;;;;2.41;76.88;99435.38;2288666;78;21379;-82
2022/02/08 07:39:48;;;;;;;35.53;9.00;;;;;;;2.51;76.77;99439.80;2266136;78;21038;-81
2022/02/08 07:42:37;;;;;;;39.17;10.50;;;;;;;2.56;76.66;99436.18;2287042;78;21062;-83
2022/02/08 07:45:37;;;;;;;32.50;8.83;;;;;;;2.50;76.63;99434.17;2289117;78;20948;-82
2022/02/08 07:48:38;;;;;;;36.07;7.70;;;;;;;2.51;76.67;99438.52;2288875;78;20959;-86
2022/02/08 07:51:40;;;;;;;27.97;9.10;;;;;;;2.53;76.56;99438.20;2288774;78;20979;-83
2022/02/08 07:54:40;;;;;;;35.57;10.13;;;;;;;2.59;76.68;99440.61;2289373;78;21063;-82
2022/02/08 07:57:41;;;;;;;35.30;10.90;;;;;;;2.62;76.57;99443.39;2289175;78;21303;-86
2022/02/08 08:00:41;;;;;;;34.17;9.03;;;;;;;2.66;76.79;99450.47;2289485;78;20996;-84
2022/02/08 08:03:42;;;;;;;39.30;8.90;;;;;;;2.72;76.21;99441.77;2289254;78;20950;-83
2022/02/08 08:06:43;;;;;;;61.00;14.17;;;;;;;2.70;76.25;99440.41;2288526;78;20975;-85
2022/02/08 08:09:43;;;;;;;48.57;13.27;;;;;;;2.72;76.43;99443.06;2290103;78;21014;-83
2022/02/08 08:12:50;;;;;;;49.60;12.63;;;;;;;2.72;76.52;99437.91;2289187;77;20975;-85
2022/02/08 08:15:56;;;;;;;42.90;11.87;;;;;;;2.72;76.34;99438.79;2288220;77;20991;-83
2022/02/08 08:19:05;;;;;;;34.27;11.03;;;;;;;2.72;76.32;99434.92;2288539;77;21024;-85
2022/02/08 08:22:04;;;;;;;40.67;12.43;;;;;;;2.72;76.28;99427.59;2289438;77;21355;-84
2022/02/08 08:25:05;;;;;;;36.90;9.03;;;;;;;2.75;76.44;99429.04;2289507;78;20971;-84
2022/02/08 08:28:07;;;;;;;35.67;9.23;;;;;;;2.78;76.34;99421.46;2288325;78;21474;-82
2022/02/08 08:31:08;;;;;;;29.40;8.37;;;;;;;2.79;76.32;99418.08;2287997;78;21094;-83
2022/02/08 08:34:08;;;;;;;39.10;9.37;;;;;;;2.84;76.57;99415.33;2288437;78;21010;-83
2022/02/08 08:37:09;;;;;;;29.60;8.20;;;;;;;2.94;76.38;99411.12;2287937;78;20982;-83
2022/02/08 08:50:09;;;;;;;23.87;6.67;;;;;;;3.59;74.33;99408.36;2288927;78;20994;-81
2022/02/08 08:53:00;;;;;;;61.53;15.53;;;;;;;3.48;74.72;99413.41;2286777;77;21319;-82
2022/02/08 08:56:00;;;;;;;40.23;9.43;;;;;;;3.43;74.97;99417.43;2288869;78;20932;-82
2022/02/08 08:59:00;;;;;;;27.57;6.80;;;;;;;3.36;74.85;99437.30;2288159;78;21038;-82
2022/02/08 09:02:01;;;;;;;31.10;10.37;;;;;;;3.31;74.60;99443.92;2288083;78;21399;-83
2022/02/08 09:05:05;;;;;;;32.73;12.57;;;;;;;3.40;74.89;99454.30;2289495;78;21359;-81
2022/02/08 09:08:05;;;;;;;40.70;10.33;;;;;;;3.53;74.72;99440.73;2287914;77;21398;-81
2022/02/08 09:11:14;;;;;;;40.43;8.17;;;;;;;3.51;74.86;99444.53;2288123;78;21018;-82
2022/02/08 09:14:12;;;;;;;25.53;7.10;;;;;;;3.55;73.99;99442.98;2286698;78;21094;-81
2022/02/08 09:21:04;;;;;;;25.60;8.07;;;;;;;3.61;73.81;99441.59;2265608;78;21042;-82
2022/02/08 09:26:59;;;;;;;29.17;8.30;;;;;;;3.50;73.76;99434.61;2266624;78;21398;-83
2022/02/08 09:29:47;;;;;;;37.83;8.50;;;;;;;3.47;72.98;99438.74;2285243;78;21098;-83
2022/02/08 09:32:53;;;;;;;33.17;10.40;;;;;;;3.53;73.45;99444.20;2288467;77;21047;-84
2022/02/08 09:35:53;;;;;;;39.23;10.70;;;;;;;3.64;72.49;99433.99;2288960;78;21020;-85
2022/02/08 09:38:54;;;;;;;30.27;9.57;;;;;;;3.70;72.76;99427.83;2288853;78;20972;-81
2022/02/08 09:41:55;;;;;;;41.53;11.87;;;;;;;3.83;73.33;99422.44;2288664;78;21334;-82
2022/02/08 09:44:56;;;;;;;33.37;9.47;;;;;;;4.02;72.59;99419.42;2288952;78;21042;-82
2022/02/08 09:48:01;;;;;;;26.47;7.00;;;;;;;4.18;71.54;99415.86;2282028;78;20989;-84
2022/02/08 09:50:59;;;;;;;32.33;9.00;;;;;;;4.27;71.36;99413.28;2278479;77;20993;-83
2022/02/08 09:54:02;;;;;;;33.83;8.80;;;;;;;4.30;71.14;99414.72;2278413;77;20977;-82
2022/02/08 09:57:02;;;;;;;27.40;8.77;;;;;;;4.27;70.77;99410.70;2278829;77;21099;-83
2022/02/08 10:00:02;;;;;;;24.43;7.70;;;;;;;4.37;70.70;99405.16;2280255;77;21395;-84
2022/02/08 10:03:03;;;;;;;29.87;10.20;;;;;;;4.33;70.43;99404.52;2279560;77;20977;-82
2022/02/08 10:06:03;;;;;;;30.43;8.77;;;;;;;4.33;70.25;99398.46;2279735;78;20953;-81
2022/02/08 10:09:04;;;;;;;32.37;9.07;;;;;;;4.36;70.25;99398.63;2279916;77;20930;-82
2022/02/08 10:12:04;;;;;;;26.60;8.63;;;;;;;4.42;70.19;99392.44;2280129;77;21005;-84
2022/02/08 10:21:45;;;;;;;32.27;12.07;;;;;;;4.52;70.19;99384.28;2278811;77;21049;-81
2022/02/08 10:24:46;;;;;;;29.93;9.13;;;;;;;4.69;69.94;99388.89;2278146;78;21038;-84
2022/02/08 10:27:59;;;;;;;29.13;8.83;;;;;;;4.74;69.25;99397.33;2278412;78;21049;-83
2022/02/08 10:31:07;;;;;;;24.70;7.67;;;;;;;4.77;69.51;99387.12;2276613;78;21170;-81
2022/02/08 10:37:39;;;;;;;26.73;7.53;;;;;;;5.02;67.88;99379.98;2278565;78;20969;-81
2022/02/08 10:40:40;;;;;;;23.97;7.53;;;;;;;5.03;67.41;99376.58;2277341;78;21488;-82
2022/02/08 10:43:42;;;;;;;21.80;6.65;;;;;;;5.15;67.53;99368.86;2278691;77;21032;-81
2022/02/08 10:46:43;;;;;;;28.37;9.63;;;;;;;5.22;67.08;99352.80;2272514;77;21082;-82
2022/02/08 10:49:44;;;;;;;37.60;13.93;;;;;;;5.37;68.05;99344.36;2247175;79;21006;-82
2022/02/08 10:52:45;;;;;;;38.50;13.43;;;;;;;5.34;66.85;99347.70;2246357;78;21033;-83
2022/02/08 10:55:52;;;;;;;30.53;10.60;;;;;;;5.32;67.09;99338.11;2246407;78;20943;-81
2022/02/08 10:58:56;;;;;;;21.83;7.10;;;;;;;5.31;67.31;99345.41;2245508;79;20968;-81
2022/02/08 11:01:58;;;;;;;19.93;6.13;;;;;;;5.14;65.42;99338.21;2245460;79;21070;-83
2022/02/08 11:05:07;;;;;;;18.17;6.23;;;;;;;5.06;65.75;99337.02;2245977;79;20971;-84
2022/02/08 11:11:49;;;;;;;16.03;4.87;;;;;;;5.23;66.64;99307.97;2225857;79;20991;-82
2022/02/08 11:15:05;;;;;;;21.57;6.10;;;;;;;5.42;66.41;99301.41;2245596;79;21242;-82
2022/02/08 11:18:14;;;;;;;19.50;6.17;;;;;;;5.50;65.65;99302.59;2245889;79;21016;-82
2022/02/08 11:21:04;;;;;;;17.50;6.93;;;;;;;5.65;64.67;99304.48;2244562;79;21011;-81
2022/02/08 11:24:07;;;;;;;20.67;4.90;;;;;;;5.81;65.89;99286.52;2247015;78;21078;-82
2022/02/08 11:27:07;;;;;;;18.50;5.40;;;;;;;5.90;64.92;99274.34;2246545;79;21039;-82
2022/02/08 11:30:14;;;;;;;19.87;6.43;;;;;;;5.85;63.89;99270.26;2246174;79;21584;-82
2022/02/08 11:33:23;;;;;;;26.87;6.67;;;;;;;5.92;65.94;99279.17;2245742;79;21058;-82
2022/02/08 11:43:20;;;;;;;20.70;6.63;;;;;;;5.87;64.30;99271.20;2247258;79;21012;-82
2022/02/08 11:46:23;;;;;;;23.47;6.77;;;;;;;5.86;63.34;99269.43;2245222;78;20924;-83
2022/02/08 11:55:41;;;;;;;16.37;5.23;;;;;;;5.90;63.25;99267.88;2259730;78;21065;-83
2022/02/08 11:58:40;;;;;;;12.43;4.20;;;;;;;5.89;62.82;99258.30;2278279;78;20992;-81
2022/02/08 12:01:42;;;;;;;16.93;5.03;;;;;;;5.96;63.37;99227.52;2278744;77;21020;-82
2022/02/08 12:04:56;;;;;;;26.87;6.17;;;;;;;6.02;63.41;99237.22;2279026;78;20965;-81
2022/02/08 12:07:38;;;;;;;22.30;4.93;;;;;;;6.09;64.39;99226.69;2277074;78;20982;-82
2022/02/08 12:10:50;;;;;;;21.90;4.83;;;;;;;6.05;62.90;99242.52;2280571;77;21452;-80
2022/02/08 12:28:34;;;;;;;15.83;5.63;;;;;;;6.24;63.42;99194.41;2279744;77;21380;-80
2022/02/08 12:33:57;;;;;;;15.13;4.70;;;;;;;6.21;62.90;99195.61;2279071;77;21004;-82
2022/02/08 12:56:27;;;;;;;18.43;5.93;;;;;;;5.63;60.19;99193.47;2279559;78;21025;-79
2022/02/08 13:06:05;;;;;;;18.80;6.00;;;;;;;5.75;60.68;99173.19;2278945;78;21017;-84
2022/02/08 14:20:56;;;;;;;12.70;5.37;;;;;;;4.27;71.82;99144.94;2223204;79;20940;-85
2022/02/08 14:24:11;;;;;;;19.10;6.07;;;;;;;4.18;72.14;99138.98;2212267;80;21018;-83
2022/02/08 14:30:25;;;;;;;15.80;6.67;;;;;;;3.97;73.22;99150.99;2246685;78;21381;-82
2022/02/08 14:36:46;;;;;;;17.83;7.10;;;;;;;3.77;75.12;99135.53;2223905;79;20989;-81
2022/02/08 15:00:07;;;;;;;19.77;6.73;;;;;;;3.54;77.52;99102.67;2279123;77;20993;-80
2022/02/08 15:05:53;;;;;;;19.50;6.63;;;;;;;3.48;77.52;99094.67;2278655;77;21025;-81
2022/02/08 15:08:42;;;;;;;23.23;8.17;;;;;;;3.44;77.37;99097.48;2279310;78;21333;-81
2022/02/08 15:11:59;;;;;;;18.53;8.27;;;;;;;3.47;77.61;99094.20;2281223;78;20993;-82
2022/02/08 15:14:52;;;;;;;16.00;7.47;;;;;;;3.44;77.38;99093.62;2278906;78;21033;-81
2022/02/08 15:17:50;;;;;;;19.40;7.03;;;;;;;3.45;78.06;99086.35;2280487;78;21010;-84
2022/02/08 15:24:12;;;;;;;25.33;7.40;;;;;;;3.52;77.45;99088.83;2280361;78;21357;-82
2022/02/08 15:27:13;;;;;;;23.93;9.50;;;;;;;3.54;77.47;99083.31;2280488;78;21053;-84
2022/02/08 15:30:14;;;;;;;30.33;10.70;;;;;;;3.60;77.27;99077.53;2280837;78;21045;-83
2022/02/08 15:33:15;;;;;;;26.50;10.33;;;;;;;3.62;77.13;99089.69;2280824;78;21296;-83
2022/02/08 15:36:16;;;;;;;21.23;8.27;;;;;;;3.63;77.06;99070.81;2281395;78;20916;-82
2022/02/08 15:39:18;;;;;;;18.40;8.10;;;;;;;3.63;77.41;99066.94;2260035;78;22301;-80
2022/02/08 15:45:32;;;;;;;22.33;9.13;;;;;;;3.63;77.42;99073.80;2249036;78;21451;-80
2022/02/08 15:48:31;;;;;;;17.43;7.53;;;;;;;3.63;78.08;99060.89;2280961;77;21012;-82
2022/02/08 15:54:42;;;;;;;24.03;7.67;;;;;;;3.64;78.58;99062.66;2267705;78;21004;-81
2022/02/08 15:58:04;;;;;;;26.20;7.93;;;;;;;3.64;78.93;99066.53;2289292;78;21091;-83
2022/02/08 16:07:40;;;;;;;23.97;9.70;;;;;;;3.59;80.00;99066.33;2292379;78;21315;-84
2022/02/08 16:11:01;;;;;;;25.67;10.53;;;;;;;3.59;79.89;99070.61;2290287;77;21011;-82
2022/02/08 16:26:34;;;;;;;22.70;10.83;;;;;;;3.49;81.61;99073.20;2268900;78;21378;-83
2022/02/08 16:58:27;;;;;;;35.20;14.10;;;;;;;3.50;84.51;99058.20;2266711;78;20963;-82
2022/02/08 17:01:18;;;;;;;27.97;13.47;;;;;;;3.46;85.51;99063.59;2286837;77;21010;-83
2022/02/08 17:04:17;;;;;;;24.77;12.23;;;;;;;3.41;85.23;99061.23;2289773;77;20971;-84
2022/02/08 17:07:17;;;;;;;28.47;13.30;;;;;;;3.39;86.85;99058.11;2290200;78;21035;-82
2022/02/08 17:10:31;;;;;;;22.83;12.40;;;;;;;3.36;87.76;99061.84;2289161;78;21006;-82
2022/02/08 17:13:50;;;;;;;32.80;13.97;;;;;;;3.35;87.90;99055.80;2286629;78;21466;-82
2022/02/08 17:16:56;;;;;;;19.80;11.90;;;;;;;3.36;87.02;99056.69;2287593;77;20986;-81
2022/02/08 17:46:22;;;;;;;19.27;11.63;;;;;;;3.58;90.77;99040.05;2289464;77;20972;-79
2022/02/08 17:49:12;;;;;;;24.17;13.70;;;;;;;3.63;90.19;99036.37;2289106;77;21050;-81
2022/02/08 17:52:13;;;;;;;23.87;13.00;;;;;;;3.68;90.49;99045.19;2290331;78;21356;-80
2022/02/08 17:55:13;;;;;;;18.10;12.13;;;;;;;3.72;91.45;99037.63;2284722;78;20991;-81
2022/02/08 17:58:15;;;;;;;20.63;12.53;;;;;;;3.79;91.39;99048.69;2279797;78;20918;-82
2022/02/08 18:01:16;;;;;;;17.77;9.60;;;;;;;3.86;91.13;99047.65;2279883;78;21004;-82
2022/02/08 18:04:16;;;;;;;16.43;11.60;;;;;;;3.90;91.44;99057.28;2280062;77;21909;-80
2022/02/08 18:07:20;;;;;;;20.63;12.07;;;;;;;3.91;91.09;99053.89;2279514;78;21336;-82
2022/02/08 18:10:23;;;;;;;22.23;13.40;;;;;;;3.91;92.19;99057.76;2279382;77;20996;-83
2022/02/08 18:13:22;;;;;;;16.63;11.80;;;;;;;3.91;91.51;99067.68;2281055;77;21057;-82
2022/02/08 18:16:24;;;;;;;16.80;11.40;;;;;;;3.92;91.78;99071.14;2281455;78;20950;-82
2022/02/08 18:19:31;;;;;;;19.00;13.30;;;;;;;3.91;92.06;99069.38;2279927;78;21021;-81
2022/02/08 18:22:53;;;;;;;18.53;12.53;;;;;;;3.91;92.63;99069.38;2278455;78;21454;-82
2022/02/08 19:12:00;;;;;;;18.32;9.73;;;;;;;4.30;93.71;99048.16;2227650;79;20948;-82
2022/02/08 19:18:05;;;;;;;17.50;11.53;;;;;;;4.33;93.76;99046.98;2227113;79;20976;-82
2022/02/08 19:21:09;;;;;;;20.40;13.70;;;;;;;4.36;94.25;99045.84;2246939;79;21051;-83
2022/02/08 19:23:58;;;;;;;20.37;13.23;;;;;;;4.37;93.99;99047.61;2247915;79;20984;-83
2022/02/08 19:27:00;;;;;;;16.80;10.60;;;;;;;4.39;94.60;99046.84;2249821;79;20912;-82
2022/02/08 19:30:00;;;;;;;17.07;9.53;;;;;;;4.42;95.25;99056.02;2249556;78;20968;-82
2022/02/08 19:33:01;;;;;;;19.80;11.37;;;;;;;4.43;95.29;99060.36;2249877;78;20986;-82
2022/02/08 19:36:01;;;;;;;16.27;9.47;;;;;;;4.47;95.00;99066.53;2250081;79;20897;-83
2022/02/08 19:39:03;;;;;;;32.57;18.23;;;;;;;4.51;95.08;99068.83;2249814;78;20975;-83
2022/02/08 19:42:03;;;;;;;25.47;18.47;;;;;;;4.54;94.93;99067.23;2249504;78;20968;-79
2022/02/08 19:45:13;;;;;;;15.80;12.37;;;;;;;4.55;95.25;99071.59;2248896;78;20995;-82
2022/02/08 19:48:06;;;;;;;15.40;10.53;;;;;;;4.57;95.65;99057.02;2246379;77;21024;-81
2022/02/08 19:51:07;;;;;;;14.93;9.80;;;;;;;4.60;96.12;99060.13;2247456;77;20960;-79
2022/02/08 19:54:10;;;;;;;14.70;9.83;;;;;;;4.62;96.27;99060.66;2249523;78;20927;-80
2022/02/08 19:57:18;;;;;;;14.43;9.83;;;;;;;4.65;96.07;99072.83;2249816;79;21020;-81
2022/02/08 20:00:17;;;;;;;14.13;9.20;;;;;;;4.65;96.82;99079.29;2247953;77;21023;-81
2022/02/08 20:03:14;;;;;;;11.83;8.40;;;;;;;4.68;95.98;99088.46;2249298;79;21016;-81
2022/02/08 20:06:16;;;;;;;15.57;9.37;;;;;;;4.69;96.52;99085.94;2249643;78;20964;-81
2022/02/08 20:09:16;;;;;;;18.53;11.00;;;;;;;4.70;96.80;99073.47;2249654;78;20972;-81
2022/02/08 20:12:17;;;;;;;18.37;10.80;;;;;;;4.71;96.41;99079.53;2249156;78;20932;-80
2022/02/08 20:15:19;;;;;;;15.40;9.67;;;;;;;4.74;96.38;99089.98;2248371;78;21046;-81
2022/02/08 20:18:21;;;;;;;15.77;10.13;;;;;;;4.79;96.21;99091.05;2248471;79;21051;-81
2022/02/08 20:21:23;;;;;;;19.50;12.00;;;;;;;4.81;96.59;99086.81;2249437;79;21028;-81
2022/02/08 20:24:24;;;;;;;12.10;8.57;;;;;;;4.84;96.47;99089.52;2248790;79;21023;-82
2022/02/08 20:27:36;;;;;;;16.83;10.20;;;;;;;4.86;96.79;99088.28;2249004;78;20931;-82
2022/02/08 20:30:34;;;;;;;14.13;9.83;;;;;;;4.90;97.38;99091.05;2247241;79;21452;-83
2022/02/08 20:33:34;;;;;;;16.53;9.80;;;;;;;4.91;97.68;99098.39;2247607;79;21015;-81
2022/02/08 20:36:35;;;;;;;14.43;9.40;;;;;;;4.92;97.84;99093.69;2247964;79;20944;-81
2022/02/08 20:39:35;;;;;;;15.17;9.80;;;;;;;4.94;97.53;99105.86;2248011;79;20928;-81
2022/02/08 20:42:36;;;;;;;16.50;10.00;;;;;;;4.96;97.69;99104.21;2248073;79;20963;-82
2022/02/08 20:45:37;;;;;;;11.57;9.80;;;;;;;4.98;97.83;99104.27;2247910;79;21015;-82
2022/02/08 20:48:38;;;;;;;14.03;10.17;;;;;;;5.00;98.08;99111.27;2249912;77;21028;-82
2022/02/08 20:51:43;;;;;;;14.73;9.30;;;;;;;5.02;98.00;99104.44;2282229;78;20957;-84
2022/02/08 20:54:49;;;;;;;13.73;10.40;;;;;;;5.07;97.40;99102.91;2282146;78;21034;-84
2022/02/08 20:57:51;;;;;;;13.57;9.73;;;;;;;5.11;97.44;99109.08;2280835;78;21397;-85
2022/02/08 21:00:46;;;;;;;13.37;8.27;;;;;;;5.16;97.62;99107.55;2281256;78;20998;-81
2022/02/08 21:03:59;;;;;;;11.67;8.13;;;;;;;5.21;98.09;99118.98;2281634;77;21000;-81
2022/02/08 21:06:55;;;;;;;13.10;9.47;;;;;;;5.25;97.86;99115.69;2280653;78;21302;-80
2022/02/08 21:09:55;;;;;;;12.00;8.83;;;;;;;5.28;97.50;99114.91;2282054;77;20946;-81
2022/02/08 21:15:58;;;;;;;12.83;8.43;;;;;;;5.31;97.94;99115.03;2261228;78;20990;-81